PAJN/JNU METAR and TAF weather

Enter ICAO airport designator
Station Type Date Time Source
PAJN METAR 2019/02/21 11:53 UTC NOAA

PAJN 211153Z 08011KT 5SM -SN BR BKN007 BKN022 OVC037 01/01 A2999 RMK AO2 SLP154 BKN007 V SCT 4/005 P0001 60003 70003 T00110006 10017 20006 58029


Station Type Date Time Source
PAJN Decoded METAR 2019/02/21 11:53 UTC NOAA

JUNEAU INTERNATIONAL AIRPORT, AK, United States (PAJN) 58-21N 134-34W 8M
Feb 21, 2019 - 06:53 AM EST / 2019.02.21 1153 UTC
Wind: from the E (080 degrees) at 13 MPH (11 KT):0
Visibility: 5 mile(s):0
Sky conditions: overcast
Weather: light snow; mist; 5 inches of snow on ground
Precipitation last hour: 0.01 inches
Temperature: 34.0 F (1.1 C)
Windchill: 24 F (-4 C):1
Dew Point: 33.1 F (0.6 C)
Relative Humidity: 96%
Pressure (altimeter): 29.99 in. Hg (1015 hPa)
Pressure tendency: 0.09 inches (2.9 hPa) lower than three hours ago
ob: PAJN 211153Z 08011KT 5SM -SN BR BKN007 BKN022 OVC037 01/01 A2999 RMK AO2 SLP154 BKN007 V SCT 4/005 P0001 60003 70003 T00110006 10017 20006 58029
cycle: 12

Station Type Date Time Source
PAJN TAF 2019/02/21 12:34 UTC NOAA

TAF PAJN 211132Z 2112/2212 09013KT 2SM -SN SCT015 BKN025 OVC050
TEMPO 2112/2116 6SM -SN BR
FM211800 10015KT 1SM -SN BR OVC015 WS020/13035KT
FM212100 10020KT 5SM -RASN BR BKN015 OVC025 WS020/14040KT
FM220200 09009KT P6SM VCSH SCT015 BKN025 OVC040


Example: see airport list